createdAt,value
2023-05-12T00:00:56.190Z,19.3638
2023-05-12T00:01:57.956Z,19.3615
2023-05-12T00:02:59.825Z,19.3671
2023-05-12T00:04:01.875Z,19.3794
2023-05-12T00:05:03.495Z,19.3817
2023-05-12T00:06:05.339Z,19.3730
2023-05-12T00:07:07.130Z,19.3576
2023-05-12T00:08:08.972Z,19.3739
2023-05-12T00:09:10.816Z,19.3698
2023-05-12T00:10:12.676Z,19.3720
2023-05-12T00:11:14.485Z,19.3476
2023-05-12T00:12:16.338Z,19.3550
2023-05-12T00:13:18.219Z,19.3685
2023-05-12T00:14:19.993Z,19.3806
2023-05-12T00:15:21.827Z,19.3891
2023-05-12T00:16:23.730Z,19.3622
2023-05-12T00:17:25.558Z,19.3615
2023-05-12T00:18:27.375Z,19.3702
2023-05-12T00:19:29.197Z,19.3907
2023-05-12T00:20:31.032Z,19.3802
2023-05-12T00:21:32.841Z,19.3839
2023-05-12T00:22:34.690Z,19.3654
2023-05-12T00:23:36.540Z,19.3716
2023-05-12T00:24:38.387Z,19.3827
2023-05-12T00:25:40.217Z,19.4057
2023-05-12T00:26:42.042Z,19.4197
2023-05-12T00:27:43.883Z,19.4069
2023-05-12T00:28:45.745Z,19.4129
2023-05-12T00:29:47.572Z,19.3843
2023-05-12T00:30:49.394Z,19.3856
2023-05-12T00:31:51.299Z,19.3870
2023-05-12T00:32:53.132Z,19.3997
2023-05-12T00:33:54.915Z,19.4119
2023-05-12T00:34:56.760Z,19.4006
2023-05-12T00:35:58.609Z,19.4092
2023-05-12T00:37:00.428Z,19.3956
2023-05-12T00:38:02.265Z,19.4082
2023-05-12T00:39:04.101Z,19.4125
2023-05-12T00:40:05.963Z,19.4180
2023-05-12T00:41:07.779Z,19.4330
2023-05-12T00:42:09.617Z,19.4207
2023-05-12T00:43:11.474Z,19.4361
2023-05-12T00:44:13.306Z,19.4351
2023-05-12T00:45:15.170Z,19.4301
2023-05-12T00:46:16.980Z,19.4026
2023-05-12T00:47:18.799Z,19.4168
2023-05-12T00:48:20.636Z,19.4287
2023-05-12T00:49:22.464Z,19.4468
2023-05-12T00:50:24.350Z,19.4460
2023-05-12T00:51:26.159Z,19.4336
2023-05-12T00:52:27.993Z,19.4121
2023-05-12T00:53:37.881Z,19.4493
2023-05-12T00:54:32.686Z,19.4521
2023-05-12T00:55:33.498Z,19.4618
2023-05-12T00:56:35.389Z,19.4488
2023-05-12T00:57:37.258Z,19.4558
2023-05-12T00:58:39.010Z,19.4343
2023-05-12T00:59:40.855Z,19.4532
2023-05-12T01:00:42.690Z,19.4575
2023-05-12T01:01:44.528Z,19.4716
2023-05-12T01:02:46.403Z,19.4753
2023-05-12T01:03:48.252Z,19.4712
2023-05-12T01:04:50.040Z,19.4850
2023-05-12T01:05:51.877Z,19.4684
2023-05-12T01:06:53.728Z,19.4632
2023-05-12T01:07:55.532Z,19.4700
2023-05-12T01:08:57.357Z,19.4667
2023-05-12T01:09:59.205Z,19.4614
2023-05-12T01:11:01.030Z,19.4534
2023-05-12T01:12:02.882Z,19.4805
2023-05-12T01:13:04.719Z,19.5035
2023-05-12T01:14:06.584Z,19.4957
2023-05-12T01:15:08.386Z,19.4797
2023-05-12T01:16:10.257Z,19.4924
2023-05-12T01:17:12.109Z,19.5027
2023-05-12T01:18:13.944Z,19.5055
2023-05-12T01:19:15.781Z,19.5020
2023-05-12T01:20:17.743Z,19.4891
2023-05-12T01:21:19.415Z,19.4780
2023-05-12T01:22:21.274Z,19.4942
2023-05-12T01:23:23.082Z,19.4753
2023-05-12T01:24:24.918Z,19.4883
2023-05-12T01:25:26.762Z,19.4983
2023-05-12T01:26:28.596Z,19.4963
2023-05-12T01:27:30.448Z,19.5029
2023-05-12T01:28:32.294Z,19.5039
2023-05-12T01:29:34.121Z,19.4992
2023-05-12T01:30:35.960Z,19.5101
2023-05-12T01:31:37.832Z,19.5020
2023-05-12T01:32:39.698Z,19.4905
2023-05-12T01:33:41.496Z,19.4965
2023-05-12T01:34:43.360Z,19.5164
2023-05-12T01:35:45.142Z,19.5144
2023-05-12T01:36:47.006Z,19.5164
2023-05-12T01:37:48.817Z,19.4965
2023-05-12T01:38:50.657Z,19.5281
2023-05-12T01:39:52.517Z,19.5117
2023-05-12T01:40:54.332Z,19.5191
2023-05-12T01:41:56.189Z,19.5096
2023-05-12T01:42:58.105Z,19.5053
2023-05-12T01:43:59.853Z,19.4854
2023-05-12T01:45:01.685Z,19.4912
2023-05-12T01:46:03.559Z,19.4778
2023-05-12T01:47:05.353Z,19.4971
2023-05-12T01:48:07.213Z,19.4977
2023-05-12T01:49:09.040Z,19.5148
2023-05-12T01:50:10.864Z,19.5250
2023-05-12T01:51:12.694Z,19.5244
2023-05-12T01:52:14.530Z,19.5222
2023-05-12T01:53:16.370Z,19.5300
2023-05-12T01:54:18.205Z,19.4942
2023-05-12T01:55:20.067Z,19.5006
2023-05-12T01:56:21.916Z,19.5041
2023-05-12T01:57:23.733Z,19.5216
2023-05-12T01:58:25.587Z,19.5144
2023-05-12T01:59:27.479Z,19.5222
2023-05-12T02:00:29.241Z,19.5148
2023-05-12T02:01:31.149Z,19.5105
2023-05-12T02:02:32.983Z,19.5154
2023-05-12T02:03:34.838Z,19.5244
2023-05-12T02:04:36.607Z,19.5203
2023-05-12T02:05:45.969Z,19.5138
2023-05-12T02:06:40.281Z,19.5264
2023-05-12T02:07:42.114Z,19.5417
2023-05-12T02:08:43.935Z,19.5495
2023-05-12T02:09:45.798Z,19.5349
2023-05-12T02:10:47.636Z,19.5331
2023-05-12T02:11:49.455Z,19.5310
2023-05-12T02:12:51.305Z,19.5361
2023-05-12T02:13:53.194Z,19.5304
2023-05-12T02:14:54.971Z,19.5326
2023-05-12T02:15:56.805Z,19.5407
2023-05-12T02:16:58.654Z,19.5390
2023-05-12T02:18:00.562Z,19.5300
2023-05-12T02:19:02.338Z,19.5384
2023-05-12T02:20:04.169Z,19.5398
2023-05-12T02:21:06.009Z,19.5289
2023-05-12T02:22:07.849Z,19.5308
2023-05-12T02:23:09.671Z,19.5279
2023-05-12T02:24:13.549Z,19.5292
2023-05-12T02:25:13.353Z,19.5439
2023-05-12T02:26:15.189Z,19.5365
2023-05-12T02:27:17.027Z,19.5563
2023-05-12T02:28:18.855Z,19.5466
2023-05-12T02:29:20.717Z,19.5092
2023-05-12T02:30:22.707Z,19.5105
2023-05-12T02:31:24.397Z,19.5281
2023-05-12T02:32:26.260Z,19.5244
2023-05-12T02:33:28.070Z,19.5172
2023-05-12T02:34:29.907Z,19.5277
2023-05-12T02:35:31.766Z,19.5318
2023-05-12T02:36:33.587Z,19.5554
2023-05-12T02:37:35.391Z,19.5645
2023-05-12T02:38:37.242Z,19.5363
2023-05-12T02:39:39.091Z,19.5468
2023-05-12T02:40:40.902Z,19.5542
2023-05-12T02:41:42.745Z,19.5505
2023-05-12T02:42:44.587Z,19.5370
2023-05-12T02:43:46.435Z,19.5086
2023-05-12T02:44:48.288Z,19.5115
2023-05-12T02:45:50.162Z,19.5129
2023-05-12T02:46:51.949Z,19.5324
2023-05-12T02:47:53.878Z,19.5084
2023-05-12T02:48:55.618Z,19.5012
2023-05-12T02:49:57.454Z,19.5020
2023-05-12T02:50:59.282Z,19.4955
2023-05-12T02:52:01.151Z,19.4850
2023-05-12T02:53:02.981Z,19.5096
2023-05-12T02:54:04.814Z,19.5076
2023-05-12T02:55:06.652Z,19.5117
2023-05-12T02:56:08.466Z,19.5351
2023-05-12T02:57:10.326Z,19.5665
2023-05-12T02:58:12.162Z,19.5906
2023-05-12T02:59:14.002Z,19.6160
2023-05-12T03:00:15.839Z,19.6019
2023-05-12T03:01:17.695Z,19.5840
2023-05-12T03:02:19.646Z,19.5700
2023-05-12T03:03:21.568Z,19.5813
2023-05-12T03:04:23.266Z,19.5752
2023-05-12T03:05:25.105Z,19.5819
2023-05-12T03:06:26.927Z,19.5768
2023-05-12T03:07:28.772Z,19.5538
2023-05-12T03:08:30.605Z,19.5304
2023-05-12T03:09:32.444Z,19.5162
2023-05-12T03:10:34.316Z,19.5222
2023-05-12T03:11:36.114Z,19.5088
2023-05-12T03:12:37.966Z,19.5300
2023-05-12T03:13:39.789Z,19.5596
2023-05-12T03:14:41.648Z,19.5665
2023-05-12T03:15:43.486Z,19.5429
2023-05-12T03:16:45.381Z,19.5232
2023-05-12T03:17:47.166Z,19.5205
2023-05-12T03:18:49.056Z,19.5462
2023-05-12T03:19:50.824Z,19.5663
2023-05-12T03:20:52.650Z,19.5593
2023-05-12T03:21:54.493Z,19.5499
2023-05-12T03:22:56.323Z,19.5565
2023-05-12T03:23:58.177Z,19.5563
2023-05-12T03:25:00.010Z,19.5528
2023-05-12T03:26:01.860Z,19.5470
2023-05-12T03:27:03.697Z,19.5719
2023-05-12T03:28:05.533Z,19.5805
2023-05-12T03:29:07.372Z,19.5893
2023-05-12T03:30:09.200Z,19.5891
2023-05-12T03:31:11.052Z,19.5842
2023-05-12T03:32:12.866Z,19.5731
2023-05-12T03:33:14.715Z,19.5585
2023-05-12T03:34:16.544Z,19.5694
2023-05-12T03:35:18.399Z,19.5702
2023-05-12T03:36:20.214Z,19.5869
2023-05-12T03:37:22.090Z,19.5879
2023-05-12T03:38:23.912Z,19.5598
2023-05-12T03:39:25.746Z,19.5398
2023-05-12T03:40:27.572Z,19.5505
2023-05-12T03:41:29.429Z,19.5407
2023-05-12T03:42:31.269Z,19.5400
2023-05-12T03:43:33.100Z,19.5446
2023-05-12T03:44:34.942Z,19.5491
2023-05-12T03:45:36.777Z,19.5339
2023-05-12T03:46:38.776Z,19.5322
2023-05-12T03:47:40.903Z,19.5263
2023-05-12T03:48:42.296Z,19.5581
2023-05-12T03:49:44.129Z,19.5754
2023-05-12T03:50:45.977Z,19.5879
2023-05-12T03:51:47.804Z,19.5994
2023-05-12T03:52:49.639Z,19.6115
2023-05-12T03:53:51.485Z,19.5871
2023-05-12T03:54:53.375Z,19.5468
2023-05-12T03:55:55.176Z,19.5552
2023-05-12T03:56:56.994Z,19.5596
2023-05-12T03:57:58.850Z,19.5850
2023-05-12T03:59:00.688Z,19.5932
2023-05-12T04:00:02.518Z,19.6103
2023-05-12T04:01:04.376Z,19.6360
2023-05-12T04:02:06.288Z,19.6366
2023-05-12T04:03:08.162Z,19.6187
2023-05-12T04:04:09.942Z,19.6409
2023-05-12T04:05:11.730Z,19.6479
2023-05-12T04:06:13.582Z,19.6584
2023-05-12T04:07:15.420Z,19.6362
2023-05-12T04:08:17.260Z,19.5996
2023-05-12T04:09:19.085Z,19.6187
2023-05-12T04:10:21.128Z,19.6111
2023-05-12T04:11:22.753Z,19.5766
2023-05-12T04:12:24.625Z,19.5593
2023-05-12T04:13:26.461Z,19.5692
2023-05-12T04:14:39.136Z,19.5665
2023-05-12T04:15:31.637Z,19.6095
2023-05-12T04:16:32.249Z,19.6033
2023-05-12T04:17:33.825Z,19.6076
2023-05-12T04:18:35.698Z,19.6218
2023-05-12T04:19:37.469Z,19.6230
2023-05-12T04:20:39.324Z,19.6199
2023-05-12T04:21:41.177Z,19.6134
2023-05-12T04:22:43.003Z,19.6107
2023-05-12T04:23:44.828Z,19.5953
2023-05-12T04:24:46.669Z,19.5920
2023-05-12T04:25:48.508Z,19.5789
2023-05-12T04:26:50.362Z,19.5967
2023-05-12T04:27:52.180Z,19.6064
2023-05-12T04:28:54.051Z,19.5709
2023-05-12T04:29:55.873Z,19.5571
2023-05-12T04:30:57.727Z,19.6035
2023-05-12T04:31:59.589Z,19.6043
2023-05-12T04:33:01.501Z,19.5885
2023-05-12T04:34:03.244Z,19.5795
2023-05-12T04:35:05.072Z,19.5955
2023-05-12T04:36:06.903Z,19.5803
2023-05-12T04:37:08.765Z,19.5610
2023-05-12T04:38:10.612Z,19.5932
2023-05-12T04:39:12.437Z,19.6358
2023-05-12T04:40:14.262Z,19.6271
2023-05-12T04:41:16.099Z,19.6306
2023-05-12T04:42:17.944Z,19.6397
2023-05-12T04:44:21.617Z,19.6150
2023-05-12T04:45:23.480Z,19.6241
2023-05-12T04:46:25.314Z,19.6255
2023-05-12T04:47:27.131Z,19.6019
2023-05-12T04:48:28.980Z,19.5916
2023-05-12T04:49:30.815Z,19.6068
2023-05-12T04:50:32.661Z,19.5848
2023-05-12T04:51:34.495Z,19.6043
2023-05-12T04:52:36.331Z,19.5918
2023-05-12T04:53:38.170Z,19.6089
2023-05-12T04:54:40.004Z,19.6356
2023-05-12T04:55:41.838Z,19.6347
2023-05-12T04:56:43.681Z,19.6534
2023-05-12T04:57:45.530Z,19.6514
2023-05-12T04:58:47.381Z,19.6612
2023-05-12T04:59:49.186Z,19.6526
2023-05-12T05:00:51.041Z,19.6432
2023-05-12T05:01:52.940Z,19.6448
2023-05-12T05:02:54.793Z,19.6477
2023-05-12T05:03:56.592Z,19.6251
2023-05-12T05:04:58.374Z,19.6212
2023-05-12T05:06:00.264Z,19.6238
2023-05-12T05:07:02.073Z,19.6432
2023-05-12T05:08:03.934Z,19.6639
2023-05-12T05:09:05.737Z,19.6536
2023-05-12T05:10:07.589Z,19.6625
2023-05-12T05:11:09.423Z,19.6598
2023-05-12T05:12:11.255Z,19.6483
2023-05-12T05:13:13.106Z,19.6397
2023-05-12T05:14:14.936Z,19.6374
2023-05-12T05:15:16.768Z,19.6298
2023-05-12T05:16:18.682Z,19.6469
2023-05-12T05:17:20.638Z,19.6458
2023-05-12T05:18:24.182Z,19.6717
2023-05-12T05:19:37.779Z,19.6575
2023-05-12T05:20:29.447Z,19.6358
2023-05-12T05:21:29.309Z,19.6356
2023-05-12T05:22:30.884Z,19.6419
2023-05-12T05:23:32.416Z,19.6302
2023-05-12T05:24:33.976Z,19.6356
2023-05-12T05:25:35.537Z,19.6314
2023-05-12T05:26:37.113Z,19.6181
2023-05-12T05:27:38.910Z,19.6008
2023-05-12T05:28:40.676Z,19.6013
2023-05-12T05:29:42.499Z,19.6390
2023-05-12T05:30:44.372Z,19.6370
2023-05-12T05:31:46.187Z,19.6635
2023-05-12T05:32:48.098Z,19.6711
2023-05-12T05:33:49.945Z,19.6797
2023-05-12T05:34:51.690Z,19.6853
2023-05-12T05:35:53.520Z,19.6890
2023-05-12T05:36:55.373Z,19.6777
2023-05-12T05:37:57.212Z,19.6840
2023-05-12T05:38:59.043Z,19.7009
2023-05-12T05:40:00.866Z,19.6947
2023-05-12T05:41:02.711Z,19.6970
2023-05-12T05:42:04.534Z,19.7042
2023-05-12T05:43:06.378Z,19.7081
2023-05-12T05:44:08.217Z,19.7017
2023-05-12T05:45:10.070Z,19.6980
2023-05-12T05:46:11.926Z,19.6853
2023-05-12T05:47:13.759Z,19.7081
2023-05-12T05:48:15.566Z,19.6941
2023-05-12T05:49:17.390Z,19.6805
2023-05-12T05:50:19.237Z,19.6456
2023-05-12T05:51:21.093Z,19.6399
2023-05-12T05:52:22.913Z,19.6364
2023-05-12T05:53:24.798Z,19.6489
2023-05-12T05:54:26.580Z,19.6526
2023-05-12T05:55:28.418Z,19.6540
2023-05-12T05:56:30.251Z,19.6674
2023-05-12T05:57:32.102Z,19.6551
2023-05-12T05:58:33.929Z,19.6750
2023-05-12T05:59:35.760Z,19.7009
2023-05-12T06:00:37.610Z,19.7064
2023-05-12T06:01:39.548Z,19.6980
2023-05-12T06:02:41.333Z,19.6828
2023-05-12T06:03:43.157Z,19.7107
2023-05-12T06:04:44.927Z,19.7339
2023-05-12T06:05:46.787Z,19.7354
2023-05-12T06:06:48.673Z,19.7331
2023-05-12T06:07:50.439Z,19.7296
2023-05-12T06:08:52.269Z,19.7305
2023-05-12T06:09:54.115Z,19.7161
2023-05-12T06:10:55.944Z,19.7278
2023-05-12T06:11:57.787Z,19.7222
2023-05-12T06:12:59.629Z,19.6951
2023-05-12T06:14:01.461Z,19.6760
2023-05-12T06:15:03.304Z,19.6892
2023-05-12T06:16:05.156Z,19.7253
2023-05-12T06:17:07.009Z,19.7376
2023-05-12T06:18:08.832Z,19.7344
2023-05-12T06:19:10.798Z,19.7518
2023-05-12T06:20:12.482Z,19.7808
2023-05-12T06:21:14.346Z,19.8058
2023-05-12T06:22:16.170Z,19.7995
2023-05-12T06:23:18.014Z,19.8077
2023-05-12T06:24:19.836Z,19.8169
2023-05-12T06:25:21.833Z,19.8212
2023-05-12T06:26:23.519Z,19.8414
2023-05-12T06:27:25.368Z,19.8463
2023-05-12T06:28:27.213Z,19.8494
2023-05-12T06:29:29.102Z,19.8138
2023-05-12T06:30:30.893Z,19.7354
2023-05-12T06:31:32.748Z,19.7422
2023-05-12T06:32:34.597Z,19.7563
2023-05-12T06:33:36.401Z,19.7676
2023-05-12T06:34:38.246Z,19.7834
2023-05-12T06:35:40.091Z,19.8052
2023-05-12T06:36:41.904Z,19.7995
2023-05-12T06:37:43.766Z,19.7791
2023-05-12T06:38:45.593Z,19.8079
2023-05-12T06:39:47.495Z,19.8219
2023-05-12T06:40:49.287Z,19.8449
2023-05-12T06:41:51.120Z,19.8564
2023-05-12T06:42:52.946Z,19.9149
2023-05-12T06:43:54.789Z,19.9344
2023-05-12T06:44:56.616Z,19.9373
2023-05-12T06:45:58.492Z,19.9272
2023-05-12T06:47:00.309Z,19.9044
2023-05-12T06:48:02.230Z,19.8740
2023-05-12T06:49:03.976Z,19.8894
2023-05-12T06:50:05.839Z,19.9207
2023-05-12T06:51:07.678Z,19.9496
2023-05-12T06:52:09.500Z,19.9843
2023-05-12T06:53:11.340Z,20.0193
2023-05-12T06:54:13.173Z,20.0254
2023-05-12T06:55:14.996Z,20.0112
2023-05-12T06:56:16.880Z,20.0061
2023-05-12T06:57:18.674Z,20.0129
2023-05-12T06:58:20.511Z,20.0106
2023-05-12T06:59:22.386Z,19.9815
2023-05-12T07:00:24.185Z,19.9946
2023-05-12T07:01:26.043Z,19.9899
2023-05-12T07:02:27.953Z,19.9566
2023-05-12T07:03:29.727Z,19.9455
2023-05-12T07:04:31.557Z,20.0002
2023-05-12T07:05:33.523Z,20.0203
2023-05-12T07:06:35.390Z,20.0519
2023-05-12T07:07:37.204Z,20.0622
2023-05-12T07:08:38.975Z,20.0708
2023-05-12T07:09:40.810Z,20.0784
2023-05-12T07:10:42.650Z,20.0618
2023-05-12T07:11:44.505Z,20.0696
2023-05-12T07:12:46.330Z,20.0640
2023-05-12T07:13:48.201Z,20.0640
2023-05-12T07:14:50.013Z,20.0959
2023-05-12T07:15:51.883Z,20.1244
2023-05-12T07:16:53.682Z,20.1622
2023-05-12T07:17:55.751Z,20.1774
2023-05-12T07:18:57.408Z,20.1583
2023-05-12T07:19:59.195Z,20.1532
2023-05-12T07:21:01.021Z,20.1567
2023-05-12T07:22:02.883Z,20.1304
2023-05-12T07:23:04.914Z,20.1503
2023-05-12T07:24:06.538Z,20.1522
2023-05-12T07:25:08.454Z,20.2099
2023-05-12T07:26:10.254Z,20.2189
2023-05-12T07:27:12.032Z,20.2530
2023-05-12T07:28:13.892Z,20.2528
2023-05-12T07:29:15.721Z,20.2319
2023-05-12T07:30:17.571Z,20.2167
2023-05-12T07:31:19.448Z,20.2084
2023-05-12T07:32:21.230Z,20.2187
2023-05-12T07:33:23.091Z,20.2263
2023-05-12T07:34:24.947Z,20.2269
2023-05-12T07:35:26.738Z,20.2298
2023-05-12T07:36:28.571Z,20.2103
2023-05-12T07:37:30.452Z,20.2095
2023-05-12T07:38:32.286Z,20.2247
2023-05-12T07:39:34.105Z,20.2074
2023-05-12T07:40:35.950Z,20.2201
2023-05-12T07:41:37.787Z,20.2491
2023-05-12T07:42:39.695Z,20.2407
2023-05-12T07:43:41.464Z,20.2456
2023-05-12T07:44:43.305Z,20.2243
2023-05-12T07:45:45.146Z,20.1871
2023-05-12T07:46:47.066Z,20.1758
2023-05-12T07:47:48.862Z,20.1674
2023-05-12T07:48:50.657Z,20.1610
2023-05-12T07:49:52.507Z,20.1376
2023-05-12T07:50:54.347Z,20.0981
2023-05-12T07:51:56.173Z,20.0700
2023-05-12T07:52:58.018Z,20.0429
2023-05-12T07:53:59.900Z,20.0252
2023-05-12T07:55:01.692Z,20.0133
2023-05-12T07:56:03.542Z,20.0071
2023-05-12T07:57:05.371Z,19.9784
2023-05-12T07:58:07.206Z,19.9562
2023-05-12T07:59:09.056Z,19.9492
2023-05-12T08:00:10.923Z,19.9371
2023-05-12T08:01:12.750Z,19.9357
2023-05-12T08:02:14.656Z,19.9266
2023-05-12T08:03:16.471Z,19.9281
2023-05-12T08:04:18.290Z,19.9182
2023-05-12T08:05:20.253Z,19.9122
2023-05-12T08:06:21.924Z,19.9198
2023-05-12T08:07:23.744Z,19.8935
2023-05-12T08:08:25.584Z,19.8673
2023-05-12T08:09:27.429Z,19.8387
2023-05-12T08:10:29.250Z,19.8369
2023-05-12T08:11:31.080Z,19.8395
2023-05-12T08:12:32.934Z,19.8710
2023-05-12T08:13:34.745Z,19.8254
2023-05-12T08:14:36.600Z,19.7984
2023-05-12T08:15:38.417Z,19.7950
2023-05-12T08:16:40.343Z,19.7748
2023-05-12T08:17:42.218Z,19.7609
2023-05-12T08:18:43.981Z,19.7627
2023-05-12T08:19:45.781Z,19.7475
2023-05-12T08:20:47.619Z,19.7479
2023-05-12T08:21:49.433Z,19.7401
2023-05-12T08:22:51.302Z,19.7393
2023-05-12T08:23:53.131Z,19.7428
2023-05-12T08:24:55.180Z,19.7261
2023-05-12T08:25:56.780Z,19.7035
2023-05-12T08:26:58.627Z,19.7029
2023-05-12T08:28:00.462Z,19.6943
2023-05-12T08:29:02.311Z,19.6830
2023-05-12T08:30:04.157Z,19.6914
2023-05-12T08:31:05.988Z,19.6890
2023-05-12T08:32:07.796Z,19.6522
2023-05-12T08:33:09.704Z,19.6631
2023-05-12T08:34:11.491Z,19.6635
2023-05-12T08:35:13.439Z,19.6561
2023-05-12T08:36:15.211Z,19.6571
2023-05-12T08:37:16.987Z,19.6154
2023-05-12T08:38:18.810Z,19.6078
2023-05-12T08:39:20.661Z,19.6047
2023-05-12T08:40:23.467Z,19.5772
2023-05-12T08:41:24.319Z,19.5628
2023-05-12T08:42:26.172Z,19.5877
2023-05-12T08:43:27.980Z,19.6017
2023-05-12T08:44:29.823Z,19.6058
2023-05-12T08:45:31.666Z,19.6427
2023-05-12T08:46:33.541Z,19.6588
2023-05-12T08:47:35.360Z,19.6651
2023-05-12T08:48:37.168Z,19.6518
2023-05-12T08:49:39.032Z,19.6181
2023-05-12T08:50:40.870Z,19.5965
2023-05-12T08:51:42.721Z,19.5598
2023-05-12T08:52:44.538Z,19.5598
2023-05-12T08:53:46.358Z,19.5932
2023-05-12T08:54:55.456Z,19.5994
2023-05-12T08:57:08.116Z,19.5914
2023-05-12T08:57:53.701Z,19.5661
2023-05-12T08:58:55.523Z,19.5733
2023-05-12T08:59:57.407Z,19.5735
2023-05-12T09:00:59.282Z,19.6043
2023-05-12T09:02:01.075Z,19.6035
2023-05-12T09:03:02.881Z,19.6082
2023-05-12T09:04:04.768Z,19.6105
2023-05-12T09:05:06.567Z,19.6280
2023-05-12T09:06:08.381Z,19.6499
2023-05-12T09:07:10.213Z,19.6557
2023-05-12T09:08:12.040Z,19.6516
2023-05-12T09:09:13.886Z,19.5602
2023-05-12T09:10:29.867Z,19.5433
2023-05-12T09:11:19.436Z,19.5279
2023-05-12T09:12:19.953Z,19.5606
2023-05-12T09:13:21.502Z,19.5750
2023-05-12T09:14:23.053Z,19.5672
2023-05-12T09:15:24.896Z,19.5737
2023-05-12T09:16:26.766Z,19.5791
2023-05-12T09:17:28.615Z,19.5600
2023-05-12T09:18:30.411Z,19.5577
2023-05-12T09:19:32.225Z,19.5585
2023-05-12T09:20:34.070Z,19.5238
2023-05-12T09:21:35.922Z,19.5057
2023-05-12T09:22:37.749Z,19.4768
2023-05-12T09:23:39.567Z,19.4334
2023-05-12T09:24:41.418Z,19.4232
2023-05-12T09:25:43.296Z,19.4018
2023-05-12T09:26:45.130Z,19.4032
2023-05-12T09:27:46.969Z,19.4330
2023-05-12T09:28:48.794Z,19.4460
2023-05-12T09:29:58.937Z,19.4597
2023-05-12T09:30:53.674Z,19.4626
2023-05-12T09:31:54.299Z,19.4534
2023-05-12T09:32:56.190Z,19.4215
2023-05-12T09:33:57.946Z,19.4071
2023-05-12T09:34:59.797Z,19.3948
2023-05-12T09:36:01.646Z,19.4172
2023-05-12T09:37:03.471Z,19.4287
2023-05-12T09:38:05.285Z,19.4386
2023-05-12T09:39:07.221Z,19.4402
2023-05-12T09:40:08.960Z,19.3991
2023-05-12T09:41:10.804Z,19.4080
2023-05-12T09:42:12.911Z,19.4201
2023-05-12T09:43:15.667Z,19.4501
2023-05-12T09:44:16.317Z,19.4273
2023-05-12T09:45:18.406Z,19.4002
2023-05-12T09:46:20.018Z,19.4057
2023-05-12T09:47:21.841Z,19.3866
2023-05-12T09:48:25.413Z,19.4158
2023-05-12T09:49:25.511Z,19.4275
2023-05-12T09:50:30.640Z,19.4289
2023-05-12T09:51:30.177Z,19.4285
2023-05-12T09:52:30.999Z,19.4269
2023-05-12T09:53:32.830Z,19.4045
2023-05-12T09:54:34.748Z,19.3558
2023-05-12T09:55:36.493Z,19.3166
2023-05-12T09:56:38.332Z,19.2950
2023-05-12T09:57:40.195Z,19.2297
2023-05-12T09:58:42.043Z,19.2219
2023-05-12T09:59:43.970Z,19.2254
2023-05-12T10:00:59.290Z,19.2052
2023-05-12T10:01:49.885Z,19.1952
2023-05-12T10:02:50.416Z,19.2303
2023-05-12T10:03:51.941Z,19.2323
2023-05-12T10:04:53.548Z,19.2307
2023-05-12T10:05:55.071Z,19.2233
2023-05-12T10:06:56.755Z,19.2245
2023-05-12T10:07:58.591Z,19.2009
2023-05-12T10:09:00.417Z,19.1900
2023-05-12T10:10:02.334Z,19.1711
2023-05-12T10:11:04.100Z,19.1767
2023-05-12T10:12:05.962Z,19.2038
2023-05-12T10:13:08.054Z,19.2028
2023-05-12T10:14:09.649Z,19.1664
2023-05-12T10:15:11.469Z,19.1853
2023-05-12T10:16:13.300Z,19.2067
2023-05-12T10:17:15.137Z,19.2028
2023-05-12T10:18:17.028Z,19.1878
2023-05-12T10:19:18.834Z,19.1954
2023-05-12T10:20:20.648Z,19.1738
2023-05-12T10:21:22.496Z,19.1972
2023-05-12T10:22:24.331Z,19.1906
2023-05-12T10:23:26.173Z,19.2171
2023-05-12T10:24:28.035Z,19.1995
2023-05-12T10:25:29.850Z,19.1995
2023-05-12T10:26:31.690Z,19.2134
2023-05-12T10:27:33.551Z,19.2229
2023-05-12T10:28:35.370Z,19.2375
2023-05-12T10:29:37.190Z,19.1921
2023-05-12T10:30:39.040Z,19.1826
2023-05-12T10:31:40.940Z,19.2330
2023-05-12T10:32:42.857Z,19.2095
2023-05-12T10:33:44.604Z,19.2365
2023-05-12T10:34:46.530Z,19.2486
2023-05-12T10:35:49.588Z,19.2231
2023-05-12T10:36:50.105Z,19.1863
2023-05-12T10:37:51.910Z,19.1730
2023-05-12T10:38:53.780Z,19.1545
2023-05-12T10:39:55.610Z,19.1952
2023-05-12T10:40:57.445Z,19.2434
2023-05-12T10:41:59.270Z,19.2671
2023-05-12T10:43:01.109Z,19.2274
2023-05-12T10:44:03.002Z,19.2145
2023-05-12T10:45:04.811Z,19.1878
2023-05-12T10:46:06.667Z,19.1812
2023-05-12T10:47:08.923Z,19.1707
2023-05-12T10:48:10.350Z,19.1960
2023-05-12T10:49:12.165Z,19.2038
2023-05-12T10:50:14.011Z,19.2319
2023-05-12T10:51:15.851Z,19.2488
2023-05-12T10:52:17.674Z,19.2286
2023-05-12T10:53:19.510Z,19.2085
2023-05-12T10:54:21.356Z,19.2019
2023-05-12T10:55:23.505Z,19.1861
2023-05-12T10:56:25.496Z,19.1366
2023-05-12T10:57:27.030Z,19.1707
2023-05-12T10:58:29.160Z,19.1911
2023-05-12T10:59:30.890Z,19.2173
2023-05-12T11:00:33.124Z,19.2233
2023-05-12T11:01:34.829Z,19.1508
2023-05-12T11:02:37.013Z,19.1767
2023-05-12T11:03:38.546Z,19.1604
2023-05-12T11:04:39.954Z,19.1266
2023-05-12T11:05:42.464Z,19.1073
2023-05-12T11:06:43.798Z,19.1241
2023-05-12T11:08:48.297Z,19.1023
2023-05-12T11:09:57.763Z,19.0964
2023-05-12T11:10:53.781Z,19.0820
2023-05-12T11:11:54.288Z,19.0810
2023-05-12T11:12:55.289Z,19.1091
2023-05-12T11:13:56.856Z,19.1122
2023-05-12T11:14:58.472Z,19.1040
2023-05-12T11:16:00.217Z,19.1044
2023-05-12T11:17:01.909Z,19.1013
2023-05-12T11:18:03.779Z,19.1177
2023-05-12T11:19:05.642Z,19.1374
2023-05-12T11:20:07.432Z,19.1128
2023-05-12T11:21:09.262Z,19.0894
2023-05-12T11:22:11.132Z,19.0912
2023-05-12T11:23:12.941Z,19.0894
2023-05-12T11:24:14.781Z,19.0857
2023-05-12T11:25:16.619Z,19.0773
2023-05-12T11:26:18.481Z,19.1060
2023-05-12T11:27:20.306Z,19.1005
2023-05-12T11:28:22.133Z,19.0888
2023-05-12T11:29:23.980Z,19.0925
2023-05-12T11:30:25.826Z,19.0863
2023-05-12T11:31:27.658Z,19.0873
2023-05-12T11:32:29.751Z,19.1245
2023-05-12T11:33:31.322Z,19.1522
2023-05-12T11:34:33.167Z,19.1980
2023-05-12T11:35:35.006Z,19.2683
2023-05-12T11:36:36.956Z,19.3669
2023-05-12T11:37:38.688Z,19.3437
2023-05-12T11:38:40.518Z,19.3371
2023-05-12T11:39:42.362Z,19.3683
2023-05-12T11:40:44.179Z,19.4365
2023-05-12T11:41:46.049Z,19.4283
2023-05-12T11:42:47.884Z,19.4599
2023-05-12T11:43:49.707Z,19.5154
2023-05-12T11:44:51.548Z,19.5294
2023-05-12T11:45:53.479Z,19.5341
2023-05-12T11:46:55.234Z,19.4961
2023-05-12T11:47:59.268Z,19.4953
2023-05-12T11:48:58.887Z,19.4963
2023-05-12T11:50:00.735Z,19.5357
2023-05-12T11:51:02.590Z,19.5729
2023-05-12T11:52:04.421Z,19.6015
2023-05-12T11:53:06.242Z,19.6241
2023-05-12T11:54:08.073Z,19.6138
2023-05-12T11:55:09.923Z,19.6284
2023-05-12T11:56:11.752Z,19.6466
2023-05-12T11:57:13.582Z,19.6596
2023-05-12T11:58:15.449Z,19.7144
2023-05-12T11:59:17.268Z,19.6943
2023-05-12T12:00:19.119Z,19.6473
2023-05-12T12:01:21.112Z,19.5928
2023-05-12T12:02:22.817Z,19.5994
2023-05-12T12:03:24.674Z,19.6204
2023-05-12T12:04:26.531Z,19.6666
2023-05-12T12:05:28.319Z,19.7159
2023-05-12T12:06:30.137Z,19.7508
2023-05-12T12:07:32.094Z,19.7746
2023-05-12T12:08:33.834Z,19.7791
2023-05-12T12:09:35.644Z,19.7756
2023-05-12T12:10:37.508Z,19.7491
2023-05-12T12:11:39.345Z,19.7368
2023-05-12T12:12:41.181Z,19.7226
2023-05-12T12:13:43.022Z,19.7317
2023-05-12T12:14:44.889Z,19.7413
2023-05-12T12:15:46.736Z,19.7966
2023-05-12T12:16:48.788Z,19.7937
2023-05-12T12:17:50.403Z,19.8342
2023-05-12T12:18:52.256Z,19.8438
2023-05-12T12:19:54.057Z,19.8410
2023-05-12T12:20:55.887Z,19.8381
2023-05-12T12:21:57.779Z,19.8440
2023-05-12T12:22:59.572Z,19.8282
2023-05-12T12:24:01.428Z,19.8264
2023-05-12T12:25:03.267Z,19.8073
2023-05-12T12:26:05.089Z,19.7551
2023-05-12T12:27:06.932Z,19.6713
2023-05-12T12:28:08.797Z,19.6440
2023-05-12T12:29:10.609Z,19.6489
2023-05-12T12:30:12.466Z,19.6345
2023-05-12T12:31:14.342Z,19.6148